createdAt,value
2023-01-02T06:00:14.378Z,11.40
2023-01-02T06:05:18.083Z,11.70
2023-01-02T06:15:27.142Z,11.60
2023-01-02T06:20:30.761Z,11.60
2023-01-02T06:25:34.967Z,11.60
2023-01-02T06:30:39.937Z,11.50
2023-01-02T06:40:54.140Z,11.50
2023-01-02T06:46:00.303Z,11.50
2023-01-02T06:51:06.443Z,11.40
2023-01-02T06:56:11.366Z,11.10
2023-01-02T07:01:21.492Z,11.20
2023-01-02T07:06:27.951Z,10.80
2023-01-02T07:11:31.723Z,11.20
2023-01-02T07:16:36.754Z,11.20
2023-01-02T07:31:50.114Z,11.10
2023-01-02T07:37:11.570Z,11.10
2023-01-02T07:42:15.222Z,10.90
2023-01-02T07:47:20.240Z,10.90
2023-01-02T07:52:23.958Z,10.90
2023-01-02T08:02:33.019Z,10.90
2023-01-02T08:12:48.583Z,10.90
2023-01-02T08:17:53.906Z,10.90
2023-01-02T08:22:58.617Z,10.80
2023-01-02T08:28:02.240Z,10.80
2023-01-02T08:33:07.257Z,10.80
2023-01-02T08:48:21.730Z,10.80
2023-01-02T08:53:25.814Z,10.80
2023-01-02T08:58:29.469Z,10.90
2023-01-02T09:03:34.449Z,11.00
2023-01-02T09:08:39.326Z,11.10
2023-01-02T09:13:43.070Z,11.30
2023-01-02T09:18:48.325Z,11.80
2023-01-02T09:23:52.082Z,11.70
2023-01-02T09:28:58.447Z,12.00
2023-01-02T09:34:03.669Z,12.30
2023-01-02T09:44:18.443Z,12.90
2023-01-02T09:49:25.685Z,12.90
2023-01-02T09:54:31.902Z,13.20
2023-01-02T09:59:42.124Z,13.40
2023-01-02T10:04:59.517Z,13.50
2023-01-02T10:10:09.150Z,15.80
2023-01-02T10:15:25.984Z,14.00
2023-01-02T10:20:37.104Z,14.40
2023-01-02T10:25:49.554Z,14.30
2023-01-02T10:31:04.086Z,14.60
2023-01-02T10:36:21.746Z,14.80
2023-01-02T10:41:25.910Z,15.10
2023-01-02T10:46:31.307Z,15.40
2023-01-02T10:51:38.660Z,15.80
2023-01-02T10:56:44.105Z,16.00
2023-01-02T11:01:52.481Z,16.10
2023-01-02T11:07:00.003Z,16.00
2023-01-02T11:12:11.110Z,16.00
2023-01-02T11:17:16.606Z,16.10
2023-01-02T11:22:24.729Z,16.00
2023-01-02T11:27:31.182Z,16.10
2023-01-02T11:32:39.586Z,16.30
2023-01-02T11:37:52.480Z,16.60
2023-01-02T11:43:20.585Z,16.70
2023-01-02T11:48:28.775Z,16.90
2023-01-02T11:53:40.589Z,17.20
2023-01-02T11:58:51.783Z,17.50
2023-01-02T12:03:55.891Z,17.70
2023-01-02T12:09:11.273Z,17.60
2023-01-02T12:14:18.109Z,17.60
2023-01-02T12:20:05.603Z,17.70
2023-01-02T12:25:27.087Z,17.90
2023-01-02T12:30:34.592Z,18.50
2023-01-02T12:35:50.268Z,18.80
2023-01-02T12:41:01.569Z,18.70
2023-01-02T12:46:20.190Z,18.80
2023-01-02T12:51:30.071Z,18.90
2023-01-02T12:56:44.583Z,18.90
2023-01-02T13:01:58.345Z,19.00
2023-01-02T13:07:06.643Z,19.20
2023-01-02T13:12:15.466Z,18.80
2023-01-02T13:17:46.086Z,18.70
2023-01-02T13:22:56.212Z,18.30
2023-01-02T13:28:05.952Z,18.30
2023-01-02T13:33:23.289Z,18.60
2023-01-02T13:38:30.260Z,18.50
2023-01-02T13:43:35.663Z,18.40
2023-01-02T13:48:40.750Z,18.20
2023-01-02T13:53:46.456Z,18.40
2023-01-02T13:58:59.319Z,18.50
2023-01-02T14:04:32.721Z,18.40
2023-01-02T14:10:08.633Z,18.20
2023-01-02T14:15:19.548Z,18.00
2023-01-02T14:20:26.953Z,17.90
2023-01-02T14:25:31.842Z,17.90
2023-01-02T14:30:38.785Z,17.90
2023-01-02T14:35:51.369Z,17.90
2023-01-02T14:41:15.574Z,17.80
2023-01-02T14:46:25.851Z,17.60
2023-01-02T14:51:34.599Z,17.30
2023-01-02T14:56:40.177Z,17.30
2023-01-02T15:01:49.633Z,17.00
2023-01-02T15:07:14.766Z,16.50
2023-01-02T15:12:42.854Z,16.20
2023-01-02T15:17:49.187Z,15.90
2023-01-02T15:22:54.005Z,15.70
2023-01-02T15:27:57.753Z,15.50
2023-01-02T15:33:02.846Z,15.10
2023-01-02T15:38:21.499Z,14.50
2023-01-02T15:43:44.652Z,14.50
2023-01-02T15:48:51.034Z,14.40
2023-01-02T15:54:03.053Z,14.00
2023-01-02T15:59:24.800Z,14.00
2023-01-02T16:04:31.495Z,13.90
2023-01-02T16:09:35.222Z,13.70
2023-01-02T16:14:44.990Z,13.70
2023-01-02T16:19:58.503Z,13.70
2023-01-02T16:25:08.172Z,13.70
2023-01-02T16:30:30.278Z,13.70
2023-01-02T16:35:37.103Z,13.90
2023-01-02T16:41:00.426Z,13.80
2023-01-02T16:46:09.797Z,13.80
2023-01-02T16:51:16.335Z,13.70
2023-01-02T16:56:19.964Z,13.70
2023-01-02T17:01:25.465Z,13.70
2023-01-02T17:06:31.800Z,13.60
2023-01-02T17:16:39.329Z,13.50
2023-01-02T17:21:44.344Z,13.50
2023-01-02T17:26:48.214Z,13.40
2023-01-02T17:31:53.797Z,13.40
2023-01-02T17:36:58.875Z,13.30
2023-01-02T17:42:02.563Z,13.20
2023-01-02T17:47:38.735Z,13.20
2023-01-02T17:52:31.178Z,13.10
2023-01-02T17:57:37.081Z,13.10
2023-01-02T18:02:41.592Z,12.90
2023-01-02T18:07:46.738Z,12.80
2023-01-02T18:12:50.741Z,12.70
2023-01-02T18:17:56.056Z,12.60
2023-01-02T18:23:01.300Z,12.50
2023-01-02T18:28:19.452Z,12.40
2023-01-02T18:33:26.091Z,12.40
2023-01-02T18:38:33.366Z,12.50
2023-01-02T18:43:37.136Z,12.40
2023-01-02T18:48:40.894Z,12.30
2023-01-02T18:53:48.881Z,12.30
2023-01-02T18:59:07.918Z,12.30
2023-01-02T19:04:27.217Z,12.20
2023-01-02T19:09:36.415Z,12.10
2023-01-02T19:14:41.666Z,12.10
2023-01-02T19:19:45.719Z,12.10
2023-01-02T19:24:51.170Z,12.10
2023-01-02T19:29:55.662Z,12.10
2023-01-02T19:35:03.687Z,12.00
2023-01-02T19:40:18.956Z,12.00
2023-01-02T19:45:24.996Z,11.90
2023-01-02T19:50:29.080Z,11.90
2023-01-02T19:55:36.656Z,11.90
2023-01-02T20:00:40.491Z,11.90
2023-01-02T20:05:44.083Z,11.90
2023-01-02T20:10:49.049Z,11.90
2023-01-02T20:15:55.812Z,11.90
2023-01-02T20:21:00.274Z,11.90
2023-01-02T20:26:05.663Z,11.80
2023-01-02T20:31:09.427Z,11.80
2023-01-02T20:36:13.900Z,11.70
2023-01-02T20:41:19.121Z,11.60
2023-01-02T20:46:22.789Z,11.40
2023-01-02T20:51:26.813Z,11.30
2023-01-02T20:56:32.191Z,11.20
2023-01-02T21:01:36.228Z,11.20
2023-01-02T21:06:40.554Z,11.10
2023-01-02T21:11:45.617Z,11.10
2023-01-02T21:16:50.184Z,11.10
2023-01-02T21:21:53.844Z,11.10
2023-01-02T21:26:58.800Z,11.10
2023-01-02T21:32:02.415Z,11.10
2023-01-02T21:37:06.057Z,11.10
2023-01-02T21:42:16.777Z,11.10
2023-01-02T21:47:20.388Z,11.10
2023-01-02T21:52:24.152Z,11.10
2023-01-02T21:58:02.831Z,11.00
2023-01-02T22:02:53.762Z,11.00
2023-01-02T22:07:57.369Z,11.00
2023-01-02T22:13:02.321Z,10.90
2023-01-02T22:18:06.173Z,10.90
2023-01-02T22:23:09.751Z,10.90
2023-01-02T22:28:14.703Z,10.80
2023-01-02T22:33:18.854Z,10.80
2023-01-02T22:38:22.601Z,10.80
2023-01-02T22:43:32.254Z,10.80
2023-01-02T22:48:40.217Z,10.80
2023-01-02T22:53:43.960Z,10.70
2023-01-02T22:58:49.691Z,10.70
2023-01-02T23:03:53.372Z,10.70
2023-01-02T23:08:57.314Z,10.70
2023-01-02T23:14:02.381Z,10.70
2023-01-02T23:19:18.960Z,10.60
2023-01-02T23:24:24.627Z,10.60
2023-01-02T23:29:29.901Z,10.60
